createdAt,value
2023-03-16T00:01:30.847Z,10.63
2023-03-16T00:03:33.445Z,14.02
2023-03-16T00:05:35.056Z,14.27
2023-03-16T00:07:36.857Z,12.38
2023-03-16T00:09:38.909Z,13.50
2023-03-16T00:11:42.309Z,14.80
2023-03-16T00:13:44.012Z,12.88
2023-03-16T00:15:50.198Z,11.88
2023-03-16T00:17:51.745Z,11.85
2023-03-16T00:19:55.667Z,11.85
2023-03-16T00:22:03.423Z,10.70
2023-03-16T00:24:05.580Z,13.75
2023-03-16T00:26:09.494Z,17.80
2023-03-16T00:28:12.401Z,18.98
2023-03-16T00:30:14.210Z,28.52
2023-03-16T00:32:17.828Z,16.95
2023-03-16T00:34:19.392Z,16.00
2023-03-16T00:36:21.000Z,12.63
2023-03-16T00:38:22.614Z,11.15
2023-03-16T00:40:24.243Z,9.95
2023-03-16T00:42:28.667Z,10.73
2023-03-16T00:44:31.664Z,10.13
2023-03-16T00:46:33.291Z,10.82
2023-03-16T00:48:35.928Z,13.15
2023-03-16T00:50:37.715Z,9.80
2023-03-16T00:52:39.360Z,10.85
2023-03-16T00:54:42.500Z,11.40
2023-03-16T00:56:44.067Z,12.10
2023-03-16T00:58:45.705Z,11.25
2023-03-16T01:00:48.822Z,11.82
2023-03-16T01:02:50.534Z,9.18
2023-03-16T01:04:53.337Z,9.45
2023-03-16T01:06:54.850Z,11.18
2023-03-16T01:08:56.448Z,10.23
2023-03-16T01:11:02.593Z,10.13
2023-03-16T01:13:04.342Z,8.07
2023-03-16T01:15:07.153Z,9.48
2023-03-16T01:17:10.521Z,10.10
2023-03-16T01:19:12.677Z,8.02
2023-03-16T01:21:14.690Z,9.18
2023-03-16T01:23:16.593Z,8.50
2023-03-16T01:25:18.263Z,7.15
2023-03-16T01:27:19.837Z,9.80
2023-03-16T01:29:21.457Z,8.10
2023-03-16T01:31:23.168Z,8.05
2023-03-16T01:33:28.352Z,6.75
2023-03-16T01:35:29.939Z,8.93
2023-03-16T01:37:31.534Z,10.18
2023-03-16T01:39:33.078Z,7.60
2023-03-16T01:41:34.653Z,8.02
2023-03-16T01:43:38.778Z,6.97
2023-03-16T01:46:16.226Z,8.40
2023-03-16T01:48:18.291Z,7.40
2023-03-16T01:50:21.253Z,8.10
2023-03-16T01:52:27.449Z,7.55
2023-03-16T01:54:33.033Z,8.77
2023-03-16T01:56:39.694Z,8.55
2023-03-16T01:58:43.977Z,8.25
2023-03-16T02:00:45.754Z,10.90
2023-03-16T02:02:51.255Z,7.80
2023-03-16T02:05:01.136Z,8.48
2023-03-16T02:07:06.630Z,9.90
2023-03-16T02:09:08.951Z,8.95
2023-03-16T02:11:11.237Z,11.10
2023-03-16T02:13:12.798Z,8.57
2023-03-16T02:15:14.949Z,9.70
2023-03-16T02:17:19.399Z,9.00
2023-03-16T02:19:34.990Z,7.40
2023-03-16T02:21:47.410Z,9.27
2023-03-16T02:23:50.595Z,8.10
2023-03-16T02:26:00.919Z,7.13
2023-03-16T02:28:13.084Z,9.05
2023-03-16T02:30:17.904Z,8.00
2023-03-16T02:32:20.661Z,7.40
2023-03-16T02:34:23.214Z,8.35
2023-03-16T02:36:25.048Z,6.88
2023-03-16T02:38:26.688Z,7.72
2023-03-16T02:40:31.065Z,7.55
2023-03-16T02:42:32.948Z,8.20
2023-03-16T02:44:37.111Z,7.20
2023-03-16T02:46:40.908Z,6.95
2023-03-16T02:48:47.688Z,7.20
2023-03-16T02:50:51.871Z,6.80
2023-03-16T02:52:53.434Z,7.20
2023-03-16T02:54:54.969Z,8.60
2023-03-16T02:56:56.536Z,9.57
2023-03-16T02:58:58.123Z,9.40
2023-03-16T03:01:00.472Z,9.57
2023-03-16T03:03:03.571Z,8.23
2023-03-16T03:05:06.354Z,9.45
2023-03-16T03:07:08.192Z,9.55
2023-03-16T03:09:10.517Z,9.95
2023-03-16T03:11:12.131Z,10.27
2023-03-16T03:13:13.720Z,9.30
2023-03-16T03:15:15.352Z,8.73
2023-03-16T03:17:16.965Z,9.23
2023-03-16T03:19:20.002Z,8.65
2023-03-16T03:21:22.010Z,10.25
2023-03-16T03:23:23.623Z,9.20
2023-03-16T03:25:25.263Z,10.20
2023-03-16T03:27:26.779Z,10.70
2023-03-16T03:29:28.388Z,9.15
2023-03-16T03:31:30.002Z,9.20
2023-03-16T03:33:31.552Z,7.78
2023-03-16T03:35:34.500Z,8.32
2023-03-16T03:37:36.285Z,9.65
2023-03-16T03:39:37.846Z,9.07
2023-03-16T03:41:39.394Z,9.90
2023-03-16T03:43:41.001Z,13.10
2023-03-16T03:45:42.525Z,9.15
2023-03-16T03:47:44.360Z,11.23
2023-03-16T03:49:45.940Z,9.43
2023-03-16T03:51:48.912Z,8.77
2023-03-16T03:53:50.549Z,10.60
2023-03-16T03:55:52.108Z,8.68
2023-03-16T03:57:53.829Z,8.75
2023-03-16T03:59:55.426Z,8.52
2023-03-16T04:01:57.218Z,8.77
2023-03-16T04:03:59.067Z,9.20
2023-03-16T04:06:00.595Z,8.60
2023-03-16T04:08:03.719Z,9.20
2023-03-16T04:10:06.828Z,9.95
2023-03-16T04:12:08.918Z,8.90
2023-03-16T04:14:10.495Z,9.35
2023-03-16T04:16:12.394Z,9.32
2023-03-16T04:18:14.006Z,9.43
2023-03-16T04:20:16.414Z,10.40
2023-03-16T04:22:18.004Z,9.65
2023-03-16T04:24:20.993Z,9.55
2023-03-16T04:26:22.647Z,11.15
2023-03-16T04:28:24.301Z,10.80
2023-03-16T04:30:25.966Z,8.68
2023-03-16T04:32:27.703Z,10.43
2023-03-16T04:34:29.504Z,9.40
2023-03-16T04:36:31.063Z,8.82
2023-03-16T04:38:33.540Z,9.60
2023-03-16T04:40:36.478Z,9.55
2023-03-16T04:42:38.111Z,9.68
2023-03-16T04:44:39.751Z,9.52
2023-03-16T04:46:41.430Z,11.38
2023-03-16T04:48:42.969Z,9.95
2023-03-16T04:50:44.935Z,10.60
2023-03-16T04:52:46.504Z,11.07
2023-03-16T04:54:48.082Z,10.90
2023-03-16T04:56:51.021Z,9.77
2023-03-16T04:58:52.690Z,12.90
2023-03-16T05:00:55.261Z,11.23
2023-03-16T05:02:56.835Z,11.63
2023-03-16T05:04:58.365Z,12.75
2023-03-16T05:07:00.056Z,12.13
2023-03-16T05:09:01.744Z,11.98
2023-03-16T05:11:03.461Z,13.57
2023-03-16T05:13:06.797Z,13.32
2023-03-16T05:15:09.392Z,11.02
2023-03-16T05:17:15.457Z,12.80
2023-03-16T05:19:17.333Z,13.95
2023-03-16T05:21:19.075Z,14.25
2023-03-16T05:23:21.798Z,15.10
2023-03-16T05:25:23.397Z,12.82
2023-03-16T05:27:24.998Z,19.45
2023-03-16T05:29:27.906Z,11.85
2023-03-16T05:31:29.677Z,12.35
2023-03-16T05:33:31.267Z,13.68
2023-03-16T05:35:32.864Z,13.50
2023-03-16T05:37:34.647Z,12.25
2023-03-16T05:39:36.411Z,12.82
2023-03-16T05:41:37.980Z,13.02
2023-03-16T05:43:39.602Z,12.27
2023-03-16T05:45:42.539Z,13.38
2023-03-16T05:47:44.539Z,14.45
2023-03-16T05:49:46.166Z,14.15
2023-03-16T05:51:47.942Z,16.00
2023-03-16T05:53:49.537Z,12.02
2023-03-16T05:55:52.008Z,15.57
2023-03-16T05:57:53.682Z,13.50
2023-03-16T05:59:55.315Z,14.23
2023-03-16T06:01:58.255Z,13.27
2023-03-16T06:03:59.980Z,17.42
2023-03-16T06:06:01.580Z,18.70
2023-03-16T06:08:03.385Z,19.13
2023-03-16T06:10:06.256Z,15.70
2023-03-16T06:12:08.094Z,19.33
2023-03-16T06:14:09.618Z,17.55
2023-03-16T06:16:11.461Z,17.38
2023-03-16T06:18:14.471Z,22.02
2023-03-16T06:20:16.104Z,17.60
2023-03-16T06:22:18.026Z,16.45
2023-03-16T06:24:19.808Z,17.08
2023-03-16T06:26:21.357Z,14.48
2023-03-16T06:28:23.364Z,18.90
2023-03-16T06:30:25.022Z,13.32
2023-03-16T06:32:26.716Z,13.00
2023-03-16T06:34:29.888Z,14.50
2023-03-16T06:36:31.464Z,15.45
2023-03-16T06:38:33.103Z,22.63
2023-03-16T06:40:34.700Z,17.80
2023-03-16T06:42:36.306Z,16.65
2023-03-16T06:44:37.868Z,13.75
2023-03-16T06:46:39.473Z,14.95
2023-03-16T06:48:43.887Z,18.13
2023-03-16T06:50:46.811Z,15.20
2023-03-16T06:52:48.761Z,16.73
2023-03-16T06:54:50.361Z,17.58
2023-03-16T06:56:51.945Z,17.08
2023-03-16T06:58:53.744Z,17.33
2023-03-16T07:00:55.286Z,16.15
2023-03-16T07:02:58.415Z,17.05
2023-03-16T07:05:01.791Z,18.98
2023-03-16T07:07:04.649Z,17.65
2023-03-16T07:09:06.349Z,19.80
2023-03-16T07:11:08.498Z,17.65
2023-03-16T07:13:10.072Z,18.42
2023-03-16T07:15:12.833Z,19.35
2023-03-16T07:17:14.442Z,16.02
2023-03-16T07:19:16.018Z,15.02
2023-03-16T07:21:18.433Z,16.30
2023-03-16T07:23:21.514Z,15.88
2023-03-16T07:25:23.392Z,16.42
2023-03-16T07:27:25.055Z,14.05
2023-03-16T07:29:26.635Z,15.15
2023-03-16T07:31:28.217Z,17.08
2023-03-16T07:33:29.917Z,15.93
2023-03-16T07:35:31.833Z,15.98
2023-03-16T07:37:33.406Z,15.32
2023-03-16T07:39:36.858Z,15.45
2023-03-16T07:41:38.419Z,14.63
2023-03-16T07:43:40.003Z,15.02
2023-03-16T07:45:41.981Z,13.45
2023-03-16T07:47:43.833Z,13.50
2023-03-16T07:49:45.757Z,20.00
2023-03-16T07:51:47.386Z,13.32
2023-03-16T07:53:49.057Z,13.35
2023-03-16T07:55:51.927Z,17.63
2023-03-16T07:57:53.521Z,14.02
2023-03-16T07:59:55.114Z,15.52
2023-03-16T08:01:56.707Z,15.18
2023-03-16T08:03:58.348Z,13.75
2023-03-16T08:05:59.958Z,15.27
2023-03-16T08:08:01.460Z,15.15
2023-03-16T08:10:03.825Z,12.82
2023-03-16T08:12:08.854Z,15.63
2023-03-16T08:14:10.493Z,11.68
2023-03-16T08:16:12.152Z,9.50
2023-03-16T08:18:14.011Z,8.73
2023-03-16T08:20:15.510Z,9.57
2023-03-16T08:22:17.070Z,10.73
2023-03-16T08:24:18.802Z,10.60
2023-03-16T08:26:21.665Z,8.93
2023-03-16T08:28:25.043Z,8.57
2023-03-16T08:30:27.064Z,9.70
2023-03-16T08:32:28.796Z,9.05
2023-03-16T08:34:30.421Z,11.32
2023-03-16T08:36:32.091Z,10.20
2023-03-16T08:38:33.871Z,7.93
2023-03-16T08:40:35.481Z,9.05
2023-03-16T08:42:37.275Z,7.40
2023-03-16T08:44:40.177Z,7.82
2023-03-16T08:46:41.791Z,8.63
2023-03-16T08:48:43.432Z,7.80
2023-03-16T08:50:44.976Z,9.82
2023-03-16T08:52:49.511Z,8.27
2023-03-16T08:55:02.318Z,7.93
2023-03-16T08:57:05.199Z,7.60
2023-03-16T08:59:09.015Z,7.32
2023-03-16T09:01:16.990Z,6.95
2023-03-16T09:03:18.504Z,6.50
2023-03-16T09:05:20.079Z,7.55
2023-03-16T09:07:21.887Z,6.20
2023-03-16T09:09:23.464Z,6.05
2023-03-16T09:11:25.114Z,6.70
2023-03-16T09:13:30.174Z,6.80
2023-03-16T09:15:31.997Z,6.50
2023-03-16T09:17:35.196Z,6.40
2023-03-16T09:19:50.718Z,6.15
2023-03-16T09:21:58.965Z,6.60
2023-03-16T09:24:01.504Z,5.43
2023-03-16T09:26:05.194Z,5.63
2023-03-16T09:28:06.846Z,5.97
2023-03-16T09:30:10.368Z,7.00
2023-03-16T09:32:12.770Z,6.60
2023-03-16T09:34:15.815Z,5.78
2023-03-16T09:36:17.447Z,7.38
2023-03-16T09:38:19.841Z,5.07
2023-03-16T09:40:24.253Z,4.25
2023-03-16T09:42:33.310Z,5.80
2023-03-16T09:44:45.112Z,4.50
2023-03-16T09:46:48.722Z,6.10
2023-03-16T09:48:50.447Z,4.97
2023-03-16T09:50:55.139Z,5.35
2023-03-16T09:53:03.885Z,6.25
2023-03-16T09:55:12.302Z,6.40
2023-03-16T09:57:24.047Z,4.63
2023-03-16T09:59:26.061Z,5.53
2023-03-16T10:01:37.537Z,4.13
2023-03-16T10:04:04.194Z,4.57
2023-03-16T10:06:12.150Z,5.45
2023-03-16T10:08:15.903Z,5.25
2023-03-16T10:10:26.883Z,4.72
2023-03-16T10:12:34.281Z,6.75
2023-03-16T10:14:44.208Z,6.00
2023-03-16T10:16:49.815Z,7.25
2023-03-16T10:19:02.209Z,5.10
2023-03-16T10:21:05.223Z,5.05
2023-03-16T10:23:17.017Z,6.65
2023-03-16T10:25:23.716Z,5.30
2023-03-16T10:27:30.076Z,5.78
2023-03-16T10:29:36.107Z,8.52
2023-03-16T10:31:39.530Z,4.93
2023-03-16T10:33:41.178Z,6.60
2023-03-16T10:35:47.184Z,5.40
2023-03-16T10:37:48.979Z,6.13
2023-03-16T10:39:52.122Z,5.73
2023-03-16T10:41:57.672Z,4.93
2023-03-16T10:44:01.058Z,4.20
2023-03-16T10:46:02.845Z,8.00
2023-03-16T10:48:09.647Z,5.47
2023-03-16T10:50:13.008Z,4.70
2023-03-16T10:52:20.493Z,5.10
2023-03-16T10:54:28.492Z,6.60
2023-03-16T10:56:34.565Z,6.53
2023-03-16T10:58:40.047Z,5.93
2023-03-16T11:00:43.026Z,7.03
2023-03-16T11:02:44.616Z,6.40
2023-03-16T11:04:46.314Z,5.60
2023-03-16T11:06:51.867Z,5.90
2023-03-16T11:08:54.169Z,5.43
2023-03-16T11:11:00.026Z,5.13
2023-03-16T11:13:09.780Z,6.70
2023-03-16T11:15:25.259Z,7.17
2023-03-16T11:17:34.855Z,5.20
2023-03-16T11:19:50.005Z,5.73
2023-03-16T11:22:02.024Z,5.70
2023-03-16T11:24:05.804Z,4.90
2023-03-16T11:26:16.300Z,4.93
2023-03-16T11:28:28.085Z,5.70
2023-03-16T11:30:34.592Z,7.30
2023-03-16T11:32:38.790Z,5.30
2023-03-16T11:34:41.279Z,5.20
2023-03-16T11:36:49.992Z,5.10
2023-03-16T11:39:00.362Z,5.00
2023-03-16T11:41:03.999Z,5.70
2023-03-16T11:43:17.244Z,5.83
2023-03-16T11:45:28.661Z,4.20
2023-03-16T11:48:02.059Z,4.50
2023-03-16T11:50:12.958Z,5.63
2023-03-16T11:52:22.959Z,6.00
2023-03-16T11:54:52.555Z,4.53
2023-03-16T11:57:00.594Z,4.70
2023-03-16T11:59:25.646Z,5.17
2023-03-16T12:01:50.568Z,5.53
2023-03-16T12:04:24.814Z,5.17
2023-03-16T12:06:44.132Z,5.37
2023-03-16T12:09:01.275Z,4.90
2023-03-16T12:11:05.354Z,5.27
2023-03-16T12:13:24.296Z,7.13
2023-03-16T12:15:34.284Z,7.07
2023-03-16T12:17:37.974Z,5.00
2023-03-16T12:19:45.730Z,4.90
2023-03-16T12:22:01.341Z,5.73
2023-03-16T12:24:06.376Z,4.60
2023-03-16T12:26:08.429Z,4.90
2023-03-16T12:28:17.496Z,3.87
2023-03-16T12:30:29.008Z,4.83
2023-03-16T12:32:41.885Z,5.57
2023-03-16T12:34:51.122Z,5.80
2023-03-16T12:37:13.630Z,5.07
2023-03-16T12:39:23.121Z,6.50
2023-03-16T12:41:33.036Z,5.60
2023-03-16T12:43:49.589Z,6.40
2023-03-16T12:45:59.550Z,4.77
2023-03-16T12:48:12.131Z,5.30
2023-03-16T12:50:16.965Z,6.63
2023-03-16T12:52:18.877Z,4.80
2023-03-16T12:54:22.408Z,5.10
2023-03-16T12:56:28.464Z,5.37
2023-03-16T12:58:30.231Z,6.53
2023-03-16T13:00:36.144Z,6.00
2023-03-16T13:02:42.035Z,5.13
2023-03-16T13:04:49.717Z,5.07
2023-03-16T13:07:02.741Z,4.60
2023-03-16T13:09:06.582Z,7.07
2023-03-16T13:11:10.279Z,6.47
2023-03-16T13:13:14.027Z,4.70
2023-03-16T13:15:27.012Z,5.57
2023-03-16T13:17:31.250Z,6.90
2023-03-16T13:19:33.603Z,6.60
2023-03-16T13:21:38.836Z,7.23
2023-03-16T13:23:53.757Z,5.80
2023-03-16T13:26:02.741Z,5.20
2023-03-16T13:28:08.779Z,6.90
2023-03-16T13:30:19.684Z,5.07
2023-03-16T13:32:22.592Z,4.90
2023-03-16T13:34:28.530Z,7.73
2023-03-16T13:36:32.264Z,5.07
2023-03-16T13:38:35.144Z,4.87
2023-03-16T13:40:45.689Z,5.70
2023-03-16T13:42:49.029Z,5.20
2023-03-16T13:44:53.177Z,6.10
2023-03-16T13:46:54.996Z,5.33
2023-03-16T13:48:58.627Z,6.13
2023-03-16T13:51:00.472Z,5.63
2023-03-16T13:53:04.722Z,6.63
2023-03-16T13:55:15.961Z,5.20
2023-03-16T13:57:20.796Z,5.00
2023-03-16T13:59:23.209Z,5.07
2023-03-16T14:01:28.143Z,4.30
2023-03-16T14:03:35.228Z,4.87
2023-03-16T14:05:38.642Z,5.80
2023-03-16T14:07:40.351Z,4.43
2023-03-16T14:09:41.998Z,4.43
2023-03-16T14:11:45.121Z,5.07
2023-03-16T14:13:54.424Z,6.53
2023-03-16T14:15:59.151Z,6.37
2023-03-16T14:18:15.856Z,6.33
2023-03-16T14:20:21.053Z,6.40
2023-03-16T14:22:29.181Z,5.03
2023-03-16T14:24:34.280Z,4.40
2023-03-16T14:26:40.771Z,5.50
2023-03-16T14:28:55.006Z,5.03
2023-03-16T14:31:03.590Z,4.30
2023-03-16T14:33:06.884Z,4.87
2023-03-16T14:35:15.580Z,6.10
2023-03-16T14:37:17.596Z,5.40
2023-03-16T14:39:21.088Z,4.57
2023-03-16T14:41:25.613Z,4.90
2023-03-16T14:43:30.075Z,7.40
2023-03-16T14:45:34.739Z,8.80
2023-03-16T14:47:41.351Z,5.13
2023-03-16T14:49:43.567Z,4.60
2023-03-16T14:51:46.895Z,4.10
2023-03-16T14:53:48.436Z,6.50
2023-03-16T14:55:50.274Z,4.50
2023-03-16T14:57:51.891Z,5.20
2023-03-16T14:59:53.999Z,6.00
2023-03-16T15:01:57.632Z,3.73
2023-03-16T15:03:59.241Z,3.83
2023-03-16T15:06:01.807Z,4.40
2023-03-16T15:08:05.764Z,4.37
2023-03-16T15:10:20.195Z,4.20
2023-03-16T15:12:22.690Z,3.90
2023-03-16T15:14:24.264Z,4.10
2023-03-16T15:16:25.979Z,3.73
2023-03-16T15:18:28.977Z,3.40
2023-03-16T15:20:34.584Z,4.10
2023-03-16T15:22:38.183Z,4.87
2023-03-16T15:24:39.993Z,3.23
2023-03-16T15:26:41.652Z,4.90
2023-03-16T15:28:43.325Z,4.00
2023-03-16T15:30:46.858Z,4.00
2023-03-16T15:32:48.708Z,3.13
2023-03-16T15:34:51.683Z,4.10
2023-03-16T15:36:53.222Z,3.60
2023-03-16T15:38:55.100Z,3.80
2023-03-16T15:40:56.947Z,3.70
2023-03-16T15:42:58.641Z,3.30
2023-03-16T15:45:00.169Z,5.82
2023-03-16T15:47:01.845Z,5.63
2023-03-16T15:49:03.458Z,5.20
2023-03-16T15:51:13.792Z,3.90
2023-03-16T15:53:30.422Z,5.10
2023-03-16T15:55:36.100Z,3.05
2023-03-16T15:57:37.671Z,3.80
2023-03-16T15:59:40.097Z,3.30
2023-03-16T16:01:44.182Z,2.60
2023-03-16T16:03:45.729Z,4.87
2023-03-16T16:05:47.633Z,5.22
2023-03-16T16:07:50.574Z,4.00
2023-03-16T16:09:52.155Z,6.10
2023-03-16T16:11:53.781Z,4.03
2023-03-16T16:13:56.917Z,4.00
2023-03-16T16:15:58.741Z,4.30
2023-03-16T16:18:21.238Z,3.30
2023-03-16T16:20:26.119Z,5.60
2023-03-16T16:22:27.645Z,2.93
2023-03-16T16:24:30.674Z,3.63
2023-03-16T16:26:48.964Z,3.63
2023-03-16T16:28:51.799Z,3.17
2023-03-16T16:30:53.664Z,5.10
2023-03-16T16:32:57.583Z,4.33
2023-03-16T16:35:04.523Z,5.10
2023-03-16T16:37:09.506Z,3.20
2023-03-16T16:39:12.117Z,3.50
2023-03-16T16:41:31.594Z,2.53
2023-03-16T16:43:37.473Z,6.80
2023-03-16T16:45:39.066Z,4.30
2023-03-16T16:47:40.706Z,3.57
2023-03-16T16:49:42.306Z,5.57
2023-03-16T16:51:43.983Z,4.60
2023-03-16T16:53:46.302Z,3.43
2023-03-16T16:55:47.915Z,3.63
2023-03-16T16:57:54.055Z,4.53
2023-03-16T16:59:56.742Z,4.47
2023-03-16T17:02:00.441Z,3.87
2023-03-16T17:04:02.963Z,6.90
2023-03-16T17:06:05.118Z,5.90
2023-03-16T17:08:06.705Z,7.13
2023-03-16T17:10:16.025Z,8.80
2023-03-16T17:12:21.487Z,5.30
2023-03-16T17:14:25.749Z,4.73
2023-03-16T17:16:29.787Z,5.30
2023-03-16T17:18:31.797Z,6.77
2023-03-16T17:20:33.426Z,3.93
2023-03-16T17:22:35.105Z,4.00
2023-03-16T17:24:36.667Z,4.20
2023-03-16T17:26:43.062Z,7.03
2023-03-16T17:28:47.131Z,4.53
2023-03-16T17:30:50.082Z,3.80
2023-03-16T17:32:52.745Z,3.95
2023-03-16T17:34:54.351Z,6.80
2023-03-16T17:36:56.274Z,4.67
2023-03-16T17:38:57.947Z,6.13
2023-03-16T17:41:00.485Z,17.70
2023-03-16T17:43:02.074Z,5.33
2023-03-16T17:45:06.614Z,7.83
2023-03-16T17:47:15.285Z,4.33
2023-03-16T17:49:17.957Z,4.93
2023-03-16T17:51:21.291Z,6.95
2023-03-16T17:53:22.954Z,5.83
2023-03-16T17:55:24.475Z,5.30
2023-03-16T17:57:29.405Z,5.40
2023-03-16T17:59:31.047Z,8.00
2023-03-16T18:01:33.443Z,4.82
2023-03-16T18:03:36.655Z,5.90
2023-03-16T18:05:40.184Z,6.30
2023-03-16T18:07:41.749Z,9.77
2023-03-16T18:09:43.835Z,5.25
2023-03-16T18:11:48.046Z,7.07
2023-03-16T18:13:50.966Z,7.50
2023-03-16T18:15:53.212Z,8.37
2023-03-16T18:17:55.083Z,5.43
2023-03-16T18:19:58.302Z,5.80
2023-03-16T18:21:59.997Z,5.80
2023-03-16T18:24:13.820Z,12.50
2023-03-16T18:26:15.582Z,4.47
2023-03-16T18:28:18.374Z,4.50
2023-03-16T18:30:20.070Z,5.30
2023-03-16T18:32:24.999Z,4.40
2023-03-16T18:34:30.929Z,3.63
2023-03-16T18:36:36.586Z,5.47
2023-03-16T18:38:40.381Z,4.93
2023-03-16T18:40:42.048Z,6.28
2023-03-16T18:42:43.639Z,5.07
2023-03-16T18:44:45.386Z,4.63
2023-03-16T18:46:48.619Z,5.35
2023-03-16T18:48:51.409Z,5.50
2023-03-16T18:50:53.235Z,6.80
2023-03-16T18:52:56.671Z,5.50
2023-03-16T18:54:58.414Z,4.65
2023-03-16T18:57:00.210Z,4.70
2023-03-16T18:59:01.890Z,4.82
2023-03-16T19:01:03.710Z,4.10
2023-03-16T19:03:05.314Z,4.68
2023-03-16T19:05:12.350Z,6.63
2023-03-16T19:07:24.316Z,5.70
2023-03-16T19:09:29.689Z,4.85
2023-03-16T19:11:32.603Z,4.10
2023-03-16T19:13:34.132Z,3.80
2023-03-16T19:15:35.791Z,5.35
2023-03-16T19:17:37.460Z,8.02
2023-03-16T19:19:39.030Z,4.13
2023-03-16T19:21:41.026Z,3.80
2023-03-16T19:23:43.996Z,4.65
2023-03-16T19:25:47.374Z,4.10
2023-03-16T19:27:49.598Z,5.55
2023-03-16T19:29:52.982Z,7.93
2023-03-16T19:31:56.537Z,3.88
2023-03-16T19:33:58.654Z,4.25
2023-03-16T19:36:00.249Z,4.70
2023-03-16T19:38:01.931Z,3.93
2023-03-16T19:40:04.556Z,6.20
2023-03-16T19:42:19.311Z,6.18
2023-03-16T19:44:30.596Z,3.80
2023-03-16T19:46:32.178Z,5.50
2023-03-16T19:48:34.340Z,4.60
2023-03-16T19:50:35.947Z,5.45
2023-03-16T19:52:37.512Z,5.80
2023-03-16T19:54:39.206Z,4.50
2023-03-16T19:56:40.804Z,4.82
2023-03-16T19:58:46.922Z,4.68
2023-03-16T20:00:48.814Z,4.28
2023-03-16T20:02:50.586Z,5.87
2023-03-16T20:04:52.257Z,7.05
2023-03-16T20:06:54.403Z,16.92
2023-03-16T20:08:55.929Z,5.20
2023-03-16T20:11:03.847Z,6.90
2023-03-16T20:13:05.602Z,4.90
2023-03-16T20:15:14.238Z,7.50
2023-03-16T20:17:20.723Z,7.97
2023-03-16T20:19:22.510Z,4.80
2023-03-16T20:21:24.316Z,5.55
2023-03-16T20:23:27.788Z,4.83
2023-03-16T20:25:31.982Z,3.93
2023-03-16T20:27:33.568Z,4.50
2023-03-16T20:29:35.202Z,5.50
2023-03-16T20:31:38.410Z,4.13
2023-03-16T20:33:40.017Z,4.07
2023-03-16T20:35:41.648Z,9.90
2023-03-16T20:37:43.410Z,4.97
2023-03-16T20:39:45.010Z,5.18
2023-03-16T20:41:47.152Z,5.18
2023-03-16T20:43:50.220Z,7.20
2023-03-16T20:45:53.249Z,5.33
2023-03-16T20:47:56.377Z,5.18
2023-03-16T20:49:58.026Z,5.50
2023-03-16T20:52:00.037Z,6.43
2023-03-16T20:54:01.636Z,6.05
2023-03-16T20:56:03.391Z,6.73
2023-03-16T20:58:16.756Z,10.27
2023-03-16T21:00:24.004Z,5.68
2023-03-16T21:02:27.702Z,7.20
2023-03-16T21:04:30.823Z,5.85
2023-03-16T21:06:32.450Z,6.90
2023-03-16T21:08:34.029Z,6.40
2023-03-16T21:10:35.713Z,5.95
2023-03-16T21:12:46.455Z,6.50
2023-03-16T21:14:48.223Z,4.80
2023-03-16T21:16:50.422Z,4.55
2023-03-16T21:18:52.121Z,4.95
2023-03-16T21:20:55.053Z,4.60
2023-03-16T21:22:57.058Z,6.38
2023-03-16T21:24:59.064Z,7.20
2023-03-16T21:27:00.810Z,5.60
2023-03-16T21:29:07.944Z,4.55
2023-03-16T21:31:17.575Z,5.30
2023-03-16T21:33:28.164Z,9.32
2023-03-16T21:35:33.030Z,8.15
2023-03-16T21:37:35.927Z,5.65
2023-03-16T21:39:37.532Z,4.47
2023-03-16T21:41:39.102Z,4.95
2023-03-16T21:43:41.149Z,4.20
2023-03-16T21:45:43.721Z,5.45
2023-03-16T21:47:46.653Z,6.93
2023-03-16T21:49:48.228Z,8.68
2023-03-16T21:51:50.337Z,4.60
2023-03-16T21:53:53.223Z,5.80
2023-03-16T21:55:56.260Z,6.82
2023-03-16T21:57:58.849Z,6.45
2023-03-16T22:00:00.414Z,5.43
2023-03-16T22:02:02.667Z,6.77
2023-03-16T22:04:06.505Z,5.63
2023-03-16T22:06:12.474Z,7.05
2023-03-16T22:08:17.333Z,6.22
2023-03-16T22:10:20.519Z,7.65
2023-03-16T22:12:22.106Z,9.10
2023-03-16T22:14:23.687Z,10.60
2023-03-16T22:16:28.724Z,11.68
2023-03-16T22:18:35.187Z,13.32
2023-03-16T22:20:36.826Z,12.70
2023-03-16T22:22:38.380Z,9.77
2023-03-16T22:24:39.911Z,7.77
2023-03-16T22:26:42.922Z,8.05
2023-03-16T22:28:44.572Z,6.93
2023-03-16T22:30:46.877Z,6.93
2023-03-16T22:32:51.310Z,5.32
2023-03-16T22:34:55.272Z,7.82
2023-03-16T22:36:57.820Z,4.72
2023-03-16T22:39:01.905Z,5.43
2023-03-16T22:41:03.773Z,3.80
2023-03-16T22:43:12.432Z,7.60
2023-03-16T22:45:17.379Z,4.95
2023-03-16T22:47:21.760Z,6.07
2023-03-16T22:49:26.123Z,6.32
2023-03-16T22:51:31.495Z,5.47
2023-03-16T22:53:37.849Z,5.18
2023-03-16T22:55:40.180Z,3.90
2023-03-16T22:57:41.946Z,4.32
2023-03-16T22:59:47.247Z,5.32
2023-03-16T23:01:50.115Z,5.05
2023-03-16T23:03:52.309Z,6.85
2023-03-16T23:05:54.061Z,4.68
2023-03-16T23:07:56.769Z,6.35
2023-03-16T23:09:58.311Z,6.95
2023-03-16T23:11:59.954Z,9.77
2023-03-16T23:14:02.177Z,6.13
2023-03-16T23:16:14.792Z,6.00
2023-03-16T23:18:18.573Z,4.43
2023-03-16T23:20:23.644Z,5.30
2023-03-16T23:22:25.205Z,5.65
2023-03-16T23:24:26.825Z,7.30
2023-03-16T23:26:28.817Z,5.73
2023-03-16T23:28:30.392Z,5.25
2023-03-16T23:30:35.073Z,5.40
2023-03-16T23:32:38.051Z,5.13
2023-03-16T23:34:39.609Z,4.68
2023-03-16T23:36:41.493Z,4.85
2023-03-16T23:38:43.600Z,4.40
2023-03-16T23:40:46.534Z,5.00
2023-03-16T23:42:48.882Z,6.72
2023-03-16T23:44:50.476Z,6.97
2023-03-16T23:46:52.617Z,5.57
2023-03-16T23:48:58.816Z,4.63
2023-03-16T23:51:00.673Z,5.93
2023-03-16T23:53:03.335Z,4.90
2023-03-16T23:55:10.276Z,8.02
2023-03-16T23:57:12.081Z,6.10
2023-03-16T23:59:13.707Z,6.45
